createdAt,value
2023-06-15T00:00:14.585Z,97629.38
2023-06-15T00:02:43.641Z,97628.06
2023-06-15T00:05:12.733Z,97628.00
2023-06-15T00:07:40.270Z,97629.78
2023-06-15T00:10:09.088Z,97626.53
2023-06-15T00:12:36.799Z,97629.66
2023-06-15T00:15:04.854Z,97637.47
2023-06-15T00:17:33.006Z,97636.28
2023-06-15T00:20:01.678Z,97624.38
2023-06-15T00:22:30.720Z,97627.06
2023-06-15T00:24:58.268Z,97624.22
2023-06-15T00:27:25.790Z,97628.81
2023-06-15T00:29:53.432Z,97626.91
2023-06-15T00:32:21.088Z,97625.09
2023-06-15T00:34:48.796Z,97632.97
2023-06-15T00:37:16.365Z,97625.31
2023-06-15T00:39:45.387Z,97625.72
2023-06-15T00:42:12.964Z,97627.63
2023-06-15T00:44:40.530Z,97638.75
2023-06-15T00:47:13.937Z,97628.44
2023-06-15T00:49:45.811Z,97629.00
2023-06-15T00:52:14.399Z,97631.72
2023-06-15T00:54:44.453Z,97632.16
2023-06-15T00:57:13.871Z,97637.56
2023-06-15T00:59:41.900Z,97640.88
2023-06-15T01:02:13.583Z,97632.66
2023-06-15T01:04:41.632Z,97630.59
2023-06-15T01:07:11.710Z,97627.06
2023-06-15T01:09:42.356Z,97627.09
2023-06-15T01:12:13.785Z,97630.41
2023-06-15T01:14:41.610Z,97620.09
2023-06-15T01:17:11.183Z,97633.69
2023-06-15T01:19:43.292Z,97629.59
2023-06-15T01:22:17.846Z,97633.03
2023-06-15T01:24:47.258Z,97634.09
2023-06-15T01:27:16.208Z,97627.94
2023-06-15T01:29:44.059Z,97626.25
2023-06-15T01:32:11.647Z,97627.56
2023-06-15T01:34:39.173Z,97620.34
2023-06-15T01:37:07.569Z,97619.34
2023-06-15T01:39:35.106Z,97617.69
2023-06-15T01:42:03.320Z,97616.47
2023-06-15T01:44:35.099Z,97615.63
2023-06-15T01:47:02.782Z,97619.75
2023-06-15T01:49:30.618Z,97615.44
2023-06-15T01:51:58.174Z,97617.91
2023-06-15T01:54:26.441Z,97617.09
2023-06-15T01:56:54.353Z,97610.28
2023-06-15T01:59:22.531Z,97612.09
2023-06-15T02:01:51.505Z,97608.41
2023-06-15T02:04:19.159Z,97604.31
2023-06-15T02:06:48.414Z,97608.84
2023-06-15T02:09:17.967Z,97606.59
2023-06-15T02:11:46.470Z,97605.94
2023-06-15T02:14:18.814Z,97603.28
2023-06-15T02:16:51.339Z,97599.78
2023-06-15T02:19:22.137Z,97604.31
2023-06-15T02:21:50.425Z,97602.03
2023-06-15T02:24:19.277Z,97602.19
2023-06-15T02:26:47.629Z,97605.25
2023-06-15T02:29:15.265Z,97604.44
2023-06-15T02:31:42.809Z,97607.50
2023-06-15T02:34:11.720Z,97605.69
2023-06-15T02:36:40.588Z,97593.75
2023-06-15T02:39:08.513Z,97599.31
2023-06-15T02:41:36.275Z,97598.41
2023-06-15T02:44:04.424Z,97607.50
2023-06-15T02:46:33.542Z,97599.66
2023-06-15T02:49:01.160Z,97600.06
2023-06-15T02:51:32.216Z,97611.78
2023-06-15T02:54:00.185Z,97605.06
2023-06-15T02:56:30.402Z,97598.41
2023-06-15T02:59:01.364Z,97608.56
2023-06-15T03:01:39.815Z,97608.31
2023-06-15T03:04:15.736Z,97609.69
2023-06-15T03:06:50.820Z,97616.88
2023-06-15T03:09:23.713Z,97614.63
2023-06-15T03:11:52.416Z,97618.53
2023-06-15T03:14:25.801Z,97612.16
2023-06-15T03:16:55.503Z,97615.91
2023-06-15T03:19:28.632Z,97614.06
2023-06-15T03:21:58.703Z,97627.19
2023-06-15T03:24:27.595Z,97624.50
2023-06-15T03:26:58.451Z,97629.13
2023-06-15T03:29:28.031Z,97626.16
2023-06-15T03:31:55.732Z,97635.66
2023-06-15T03:34:23.648Z,97634.63
2023-06-15T03:36:52.605Z,97641.56
2023-06-15T03:39:21.857Z,97638.25
2023-06-15T03:41:49.650Z,97638.00
2023-06-15T03:44:17.335Z,97643.78
2023-06-15T03:46:50.363Z,97642.13
2023-06-15T03:49:18.125Z,97645.25
2023-06-15T03:51:46.640Z,97642.59
2023-06-15T03:54:14.210Z,97645.81
2023-06-15T03:56:43.219Z,97641.13
2023-06-15T03:59:11.481Z,97647.03
2023-06-15T04:01:39.954Z,97641.84
2023-06-15T04:04:07.598Z,97658.06
2023-06-15T04:06:37.004Z,97653.81
2023-06-15T04:09:06.247Z,97652.81
2023-06-15T04:11:34.032Z,97648.66
2023-06-15T04:14:02.959Z,97651.81
2023-06-15T04:16:30.826Z,97648.78
2023-06-15T04:18:58.372Z,97657.41
2023-06-15T04:21:26.008Z,97658.06
2023-06-15T04:23:53.604Z,97651.13
2023-06-15T04:26:21.329Z,97664.06
2023-06-15T04:28:50.990Z,97666.50
2023-06-15T04:31:22.870Z,97669.13
2023-06-15T04:33:59.977Z,97673.28
2023-06-15T04:36:32.188Z,97663.41
2023-06-15T04:39:01.890Z,97669.59
2023-06-15T04:41:31.035Z,97673.56
2023-06-15T04:44:03.725Z,97678.09
2023-06-15T04:46:33.450Z,97676.66
2023-06-15T04:49:01.896Z,97673.81
2023-06-15T04:51:31.382Z,97675.00
2023-06-15T04:53:59.114Z,97669.69
2023-06-15T04:56:27.380Z,97668.06
2023-06-15T04:58:55.112Z,97668.72
2023-06-15T05:01:23.073Z,97675.31
2023-06-15T05:03:54.488Z,97670.78
2023-06-15T05:06:22.241Z,97669.34
2023-06-15T05:08:50.478Z,97672.66
2023-06-15T05:11:18.117Z,97674.69
2023-06-15T05:13:46.908Z,97685.00
2023-06-15T05:16:15.096Z,97681.13
2023-06-15T05:18:43.452Z,97684.22
2023-06-15T05:21:13.410Z,97678.06
2023-06-15T05:23:42.094Z,97685.06
2023-06-15T05:26:25.446Z,97681.75
2023-06-15T05:28:57.463Z,97683.00
2023-06-15T05:31:25.882Z,97687.72
2023-06-15T05:33:55.119Z,97689.56
2023-06-15T05:36:34.454Z,97686.09
2023-06-15T05:39:14.395Z,97691.03
2023-06-15T05:41:43.543Z,97689.56
2023-06-15T05:44:11.662Z,97693.91
2023-06-15T05:46:39.293Z,97692.25
2023-06-15T05:49:07.153Z,97691.22
2023-06-15T05:51:36.073Z,97699.06
2023-06-15T05:54:03.717Z,97692.63
2023-06-15T05:56:32.144Z,97692.19
2023-06-15T05:59:00.564Z,97703.06
2023-06-15T06:01:28.150Z,97701.81
2023-06-15T06:03:56.354Z,97698.75
2023-06-15T06:06:26.769Z,97708.19
2023-06-15T06:08:55.751Z,97710.56
2023-06-15T06:11:23.312Z,97707.41
2023-06-15T06:13:54.138Z,97705.72
2023-06-15T06:16:21.752Z,97713.28
2023-06-15T06:18:49.745Z,97709.94
2023-06-15T06:21:17.537Z,97707.91
2023-06-15T06:23:46.302Z,97711.75
2023-06-15T06:26:15.512Z,97703.06
2023-06-15T06:28:43.073Z,97708.22
2023-06-15T06:31:10.800Z,97701.06
2023-06-15T06:33:39.299Z,97700.72
2023-06-15T06:36:09.392Z,97697.06
2023-06-15T06:38:43.337Z,97702.97
2023-06-15T06:41:22.700Z,97688.38
2023-06-15T06:43:50.490Z,97690.56
2023-06-15T06:46:18.017Z,97687.13
2023-06-15T06:48:45.528Z,97685.75
2023-06-15T06:51:13.098Z,97694.19
2023-06-15T06:53:40.635Z,97681.91
2023-06-15T06:56:08.168Z,97689.34
2023-06-15T06:58:37.325Z,97683.41
2023-06-15T07:01:04.871Z,97691.66
2023-06-15T07:03:32.596Z,97694.06
2023-06-15T07:06:00.952Z,97690.25
2023-06-15T07:08:28.532Z,97694.03
2023-06-15T07:10:56.117Z,97693.69
2023-06-15T07:13:23.952Z,97686.16
2023-06-15T07:15:55.420Z,97697.09
2023-06-15T07:18:22.945Z,97687.13
2023-06-15T07:20:54.481Z,97690.50
2023-06-15T07:23:22.947Z,97688.22
2023-06-15T07:25:50.593Z,97690.13
2023-06-15T07:28:18.223Z,97688.50
2023-06-15T07:30:47.261Z,97678.31
2023-06-15T07:33:16.167Z,97683.03
2023-06-15T07:35:43.923Z,97675.28
2023-06-15T07:38:11.521Z,97680.53
2023-06-15T07:40:39.400Z,97685.78
2023-06-15T07:43:06.918Z,97677.63
2023-06-15T07:45:34.631Z,97688.09
2023-06-15T07:48:02.208Z,97690.69
2023-06-15T07:50:31.198Z,97688.16
2023-06-15T07:52:58.769Z,97681.75
2023-06-15T07:55:26.314Z,97680.50
2023-06-15T07:57:54.259Z,97683.25
2023-06-15T08:00:22.847Z,97684.88
2023-06-15T08:02:59.932Z,97684.25
2023-06-15T08:05:27.564Z,97678.47
2023-06-15T08:07:56.412Z,97678.28
2023-06-15T08:10:24.733Z,97672.97
2023-06-15T08:12:52.343Z,97687.34
2023-06-15T08:15:19.908Z,97682.88
2023-06-15T08:17:47.523Z,97670.72
2023-06-15T08:20:17.042Z,97672.47
2023-06-15T08:22:44.969Z,97676.38
2023-06-15T08:25:13.932Z,97672.59
2023-06-15T08:27:41.633Z,97675.13
2023-06-15T08:30:10.793Z,97672.53
2023-06-15T08:32:38.977Z,97672.09
2023-06-15T08:35:08.045Z,97665.91
2023-06-15T08:37:36.202Z,97661.88
2023-06-15T08:40:07.370Z,97667.34
2023-06-15T08:42:36.610Z,97661.03
2023-06-15T08:45:06.987Z,97660.25
2023-06-15T08:47:35.260Z,97664.03
2023-06-15T08:50:05.086Z,97661.31
2023-06-15T08:52:36.012Z,97659.69
2023-06-15T08:55:04.805Z,97654.81
2023-06-15T08:57:33.496Z,97660.22
2023-06-15T09:00:02.360Z,97654.78
2023-06-15T09:02:31.844Z,97657.75
2023-06-15T09:04:59.468Z,97655.53
2023-06-15T09:07:27.019Z,97651.25
2023-06-15T09:10:13.294Z,97662.91
2023-06-15T09:12:45.853Z,97669.13
2023-06-15T09:15:20.159Z,97661.28
2023-06-15T09:17:48.392Z,97659.09
2023-06-15T09:20:16.683Z,97661.75
2023-06-15T09:22:46.660Z,97654.69
2023-06-15T09:25:17.397Z,97653.56
2023-06-15T09:27:55.229Z,97655.66
2023-06-15T09:30:24.885Z,97651.59
2023-06-15T09:32:52.493Z,97653.59
2023-06-15T09:35:20.057Z,97648.56
2023-06-15T09:37:53.561Z,97635.88
2023-06-15T09:40:21.313Z,97645.09
2023-06-15T09:42:51.918Z,97638.28
2023-06-15T09:45:19.485Z,97636.16
2023-06-15T09:47:48.395Z,97640.56
2023-06-15T09:50:16.300Z,97631.47
2023-06-15T09:52:45.182Z,97632.31
2023-06-15T09:55:12.990Z,97636.88
2023-06-15T09:57:42.544Z,97635.69
2023-06-15T10:00:13.452Z,97628.72
2023-06-15T10:02:42.100Z,97634.22
2023-06-15T10:05:15.164Z,97637.97
2023-06-15T10:07:47.255Z,97637.78
2023-06-15T10:10:15.856Z,97627.69
2023-06-15T10:12:46.251Z,97636.34
2023-06-15T10:15:17.570Z,97640.75
2023-06-15T10:17:47.810Z,97629.94
2023-06-15T10:20:19.386Z,97636.88
2023-06-15T10:22:51.780Z,97626.41
2023-06-15T10:25:19.284Z,97636.75
2023-06-15T10:27:47.067Z,97634.03
2023-06-15T10:30:19.986Z,97630.25
2023-06-15T10:32:51.252Z,97637.66
2023-06-15T10:35:26.201Z,97639.53
2023-06-15T10:37:58.177Z,97632.75
2023-06-15T10:40:26.734Z,97638.44
2023-06-15T10:42:57.745Z,97641.47
2023-06-15T10:45:29.821Z,97633.28
2023-06-15T10:47:59.587Z,97638.75
2023-06-15T10:50:29.224Z,97639.28
2023-06-15T10:52:57.448Z,97637.09
2023-06-15T10:55:26.180Z,97637.63
2023-06-15T10:58:15.806Z,97640.03
2023-06-15T11:00:43.790Z,97630.53
2023-06-15T11:03:24.911Z,97637.59
2023-06-15T11:06:04.485Z,97631.88
2023-06-15T11:08:33.067Z,97632.16
2023-06-15T11:11:00.906Z,97629.75
2023-06-15T11:13:28.740Z,97632.47
2023-06-15T11:16:12.310Z,97631.09
2023-06-15T11:18:56.589Z,97618.31
2023-06-15T11:21:28.942Z,97628.63
2023-06-15T11:23:58.896Z,97622.06
2023-06-15T11:26:30.707Z,97618.44
2023-06-15T11:29:00.615Z,97621.63
2023-06-15T11:31:29.442Z,97621.78
2023-06-15T11:33:57.921Z,97620.66
2023-06-15T11:36:26.987Z,97616.50
2023-06-15T11:38:55.345Z,97614.88
2023-06-15T11:41:22.938Z,97614.88
2023-06-15T11:43:51.089Z,97613.28
2023-06-15T11:46:21.659Z,97610.53
2023-06-15T11:48:49.666Z,97596.06
2023-06-15T11:51:18.389Z,97597.06
2023-06-15T11:53:47.857Z,97596.75
2023-06-15T11:56:16.679Z,97589.59
2023-06-15T11:58:45.418Z,97595.25
2023-06-15T12:01:15.420Z,97590.31
2023-06-15T12:04:01.491Z,97592.16
2023-06-15T12:06:31.752Z,97597.00
2023-06-15T12:09:01.216Z,97600.56
2023-06-15T12:11:28.783Z,97594.06
2023-06-15T12:14:01.190Z,97592.06
2023-06-15T12:16:30.167Z,97589.13
2023-06-15T12:18:59.373Z,97586.94
2023-06-15T12:21:30.776Z,97577.28
2023-06-15T12:23:59.903Z,97568.34
2023-06-15T12:26:32.899Z,97567.63
2023-06-15T12:29:00.840Z,97571.03
2023-06-15T12:31:35.145Z,97570.34
2023-06-15T12:34:08.192Z,97559.63
2023-06-15T12:36:36.041Z,97557.22
2023-06-15T12:39:09.623Z,97554.34
2023-06-15T12:41:39.920Z,97560.13
2023-06-15T12:44:07.750Z,97548.59
2023-06-15T12:46:37.208Z,97544.88
2023-06-15T12:49:05.301Z,97535.78
2023-06-15T12:51:32.879Z,97540.91
2023-06-15T12:54:02.265Z,97533.25
2023-06-15T12:56:31.356Z,97531.63
2023-06-15T12:58:59.962Z,97524.16
2023-06-15T13:01:27.501Z,97525.78
2023-06-15T13:03:55.286Z,97524.38
2023-06-15T13:06:23.045Z,97527.31
2023-06-15T13:08:50.637Z,97521.78
2023-06-15T13:11:18.176Z,97528.44
2023-06-15T13:13:47.084Z,97523.41
2023-06-15T13:16:14.666Z,97518.66
2023-06-15T13:18:42.239Z,97517.72
2023-06-15T13:21:09.795Z,97523.59
2023-06-15T13:23:37.410Z,97521.78
2023-06-15T13:26:04.960Z,97512.25
2023-06-15T13:28:32.528Z,97517.56
2023-06-15T13:31:01.379Z,97509.59
2023-06-15T13:33:29.083Z,97514.63
2023-06-15T13:35:58.426Z,97516.31
2023-06-15T13:38:26.220Z,97519.25
2023-06-15T13:40:53.789Z,97523.19
2023-06-15T13:43:21.864Z,97518.41
2023-06-15T13:45:49.563Z,97517.84
2023-06-15T13:48:18.438Z,97515.59
2023-06-15T13:50:46.200Z,97512.25
2023-06-15T13:53:13.754Z,97511.75
2023-06-15T13:55:43.360Z,97515.91
2023-06-15T13:58:10.900Z,97506.34
2023-06-15T14:00:39.254Z,97511.09
2023-06-15T14:03:07.632Z,97507.19
2023-06-15T14:05:36.777Z,97509.28
2023-06-15T14:08:04.989Z,97511.34
2023-06-15T14:10:32.816Z,97506.91
2023-06-15T14:13:00.568Z,97506.53
2023-06-15T14:15:28.110Z,97502.75
2023-06-15T14:17:55.699Z,97505.28
2023-06-15T14:20:23.667Z,97501.63
2023-06-15T14:22:52.533Z,97495.09
2023-06-15T14:25:20.113Z,97500.13
2023-06-15T14:27:48.795Z,97506.31
2023-06-15T14:30:17.431Z,97500.28
2023-06-15T14:32:45.780Z,97497.25
2023-06-15T14:35:13.384Z,97493.94
2023-06-15T14:37:40.982Z,97496.56
2023-06-15T14:40:10.521Z,97500.63
2023-06-15T14:42:48.025Z,97494.38
2023-06-15T14:45:15.977Z,97489.06
2023-06-15T14:47:44.382Z,97491.00
2023-06-15T14:50:12.141Z,97493.16
2023-06-15T14:52:40.204Z,97489.78
2023-06-15T14:55:07.988Z,97489.59
2023-06-15T14:57:36.846Z,97492.53
2023-06-15T15:00:07.336Z,97485.97
2023-06-15T15:02:35.804Z,97489.72
2023-06-15T15:05:03.815Z,97487.47
2023-06-15T15:07:31.363Z,97498.25
2023-06-15T15:09:59.714Z,97490.53
2023-06-15T15:12:29.981Z,97494.03
2023-06-15T15:14:58.922Z,97491.53
2023-06-15T15:17:27.760Z,97507.81
2023-06-15T15:19:55.426Z,97499.03
2023-06-15T15:22:22.956Z,97499.88
2023-06-15T15:24:50.734Z,97499.88
2023-06-15T15:27:18.289Z,97499.72
2023-06-15T15:29:45.830Z,97486.91
2023-06-15T15:32:14.913Z,97489.63
2023-06-15T15:34:42.537Z,97483.94
2023-06-15T15:37:10.135Z,97487.53
2023-06-15T15:39:37.669Z,97485.06
2023-06-15T15:42:07.791Z,97477.44
2023-06-15T15:44:35.340Z,97481.75
2023-06-15T15:47:03.512Z,97481.19
2023-06-15T15:49:32.547Z,97474.66
2023-06-15T15:52:00.133Z,97482.88
2023-06-15T15:54:27.770Z,97479.63
2023-06-15T15:56:55.402Z,97476.34
2023-06-15T15:59:23.005Z,97479.00
2023-06-15T16:01:50.829Z,97488.56
2023-06-15T16:04:18.487Z,97488.06
2023-06-15T16:06:47.344Z,97486.69
2023-06-15T16:09:14.991Z,97482.03
2023-06-15T16:11:43.030Z,97487.72
2023-06-15T16:14:10.670Z,97478.47
2023-06-15T16:16:38.275Z,97484.19
2023-06-15T16:19:05.976Z,97477.72
2023-06-15T16:21:33.758Z,97487.72
2023-06-15T16:24:02.669Z,97483.31
2023-06-15T16:26:30.280Z,97482.75
2023-06-15T16:28:58.377Z,97481.94
2023-06-15T16:31:27.326Z,97478.19
2023-06-15T16:33:54.910Z,97485.28
2023-06-15T16:36:22.407Z,97483.72
2023-06-15T16:38:51.525Z,97481.06
2023-06-15T16:41:20.613Z,97483.28
2023-06-15T16:43:48.334Z,97490.69
2023-06-15T16:46:15.898Z,97486.63
2023-06-15T16:48:43.504Z,97478.78
2023-06-15T16:51:11.028Z,97477.09
2023-06-15T16:53:38.528Z,97481.50
2023-06-15T16:56:07.430Z,97484.19
2023-06-15T16:58:36.289Z,97471.63
2023-06-15T17:01:04.342Z,97482.50
2023-06-15T17:03:32.595Z,97479.78
2023-06-15T17:06:00.442Z,97481.19
2023-06-15T17:08:27.970Z,97488.56
2023-06-15T17:10:56.180Z,97479.59
2023-06-15T17:13:23.722Z,97485.81
2023-06-15T17:15:52.702Z,97491.25
2023-06-15T17:18:20.319Z,97486.13
2023-06-15T17:20:48.389Z,97483.09
2023-06-15T17:23:15.899Z,97482.03
2023-06-15T17:25:43.472Z,97490.75
2023-06-15T17:28:13.776Z,97488.03
2023-06-15T17:30:42.275Z,97490.50
2023-06-15T17:33:13.464Z,97481.00
2023-06-15T17:35:41.120Z,97483.78
2023-06-15T17:38:11.185Z,97481.06
2023-06-15T17:40:39.913Z,97481.63
2023-06-15T17:43:07.569Z,97484.88
2023-06-15T17:45:35.169Z,97480.50
2023-06-15T17:48:03.000Z,97482.13
2023-06-15T17:50:31.948Z,97483.28
2023-06-15T17:52:59.494Z,97480.56
2023-06-15T17:55:27.036Z,97482.19
2023-06-15T17:57:54.746Z,97485.19
2023-06-15T18:00:22.320Z,97477.28
2023-06-15T18:02:50.026Z,97482.72
2023-06-15T18:05:17.947Z,97481.41
2023-06-15T18:07:47.044Z,97479.19
2023-06-15T18:10:14.632Z,97484.41
2023-06-15T18:12:42.191Z,97478.69
2023-06-15T18:15:11.013Z,97484.38
2023-06-15T18:17:38.614Z,97479.22
2023-06-15T18:20:07.675Z,97487.41
2023-06-15T18:22:38.787Z,97489.84
2023-06-15T18:25:08.745Z,97481.41
2023-06-15T18:27:36.421Z,97483.56
2023-06-15T18:30:06.557Z,97475.97
2023-06-15T18:32:35.528Z,97486.06
2023-06-15T18:35:04.440Z,97491.50
2023-06-15T18:37:32.326Z,97481.69
2023-06-15T18:39:59.960Z,97487.41
2023-06-15T18:42:28.811Z,97489.03
2023-06-15T18:44:57.140Z,97492.84
2023-06-15T18:47:26.218Z,97486.03
2023-06-15T18:49:53.990Z,97487.16
2023-06-15T18:52:21.909Z,97496.13
2023-06-15T18:54:49.642Z,97499.63
2023-06-15T18:57:18.199Z,97496.38
2023-06-15T18:59:47.469Z,97499.09
2023-06-15T19:02:17.081Z,97506.16
2023-06-15T19:04:46.293Z,97505.56
2023-06-15T19:07:14.151Z,97512.63
2023-06-15T19:09:41.670Z,97510.41
2023-06-15T19:12:11.535Z,97511.78
2023-06-15T19:14:39.375Z,97522.34
2023-06-15T19:17:09.620Z,97522.28
2023-06-15T19:19:37.573Z,97520.34
2023-06-15T19:22:05.884Z,97515.16
2023-06-15T19:24:33.902Z,97526.00
2023-06-15T19:27:01.564Z,97526.69
2023-06-15T19:29:29.241Z,97522.59
2023-06-15T19:31:56.858Z,97526.91
2023-06-15T19:34:25.734Z,97527.16
2023-06-15T19:36:55.423Z,97533.91
2023-06-15T19:39:23.645Z,97528.16
2023-06-15T19:41:51.850Z,97544.19
2023-06-15T19:44:19.479Z,97540.09
2023-06-15T19:46:47.126Z,97532.75
2023-06-15T19:49:14.711Z,97537.88
2023-06-15T19:51:43.869Z,97541.16
2023-06-15T19:54:11.546Z,97543.56
2023-06-15T19:56:41.453Z,97555.72
2023-06-15T19:59:09.501Z,97545.03
2023-06-15T20:01:37.100Z,97547.66
2023-06-15T20:04:04.843Z,97547.97
2023-06-15T20:06:32.429Z,97541.94
2023-06-15T20:09:01.294Z,97549.25
2023-06-15T20:11:28.916Z,97549.81
2023-06-15T20:13:56.438Z,97546.28
2023-06-15T20:16:24.016Z,97554.94
2023-06-15T20:18:52.752Z,97548.38
2023-06-15T20:21:21.746Z,97552.41
2023-06-15T20:23:49.541Z,97547.22
2023-06-15T20:26:18.436Z,97546.91
2023-06-15T20:28:45.981Z,97549.91
2023-06-15T20:31:14.037Z,97545.75
2023-06-15T20:33:45.005Z,97549.25
2023-06-15T20:36:12.896Z,97537.31
2023-06-15T20:38:40.842Z,97541.31
2023-06-15T20:41:08.403Z,97552.72
2023-06-15T20:43:37.285Z,97550.34
2023-06-15T20:46:04.816Z,97544.97
2023-06-15T20:48:35.675Z,97546.44
2023-06-15T20:51:06.076Z,97545.28
2023-06-15T20:53:34.401Z,97550.84
2023-06-15T20:56:05.100Z,97554.22
2023-06-15T20:58:34.762Z,97546.22
2023-06-15T21:01:04.174Z,97549.81
2023-06-15T21:03:32.176Z,97539.84
2023-06-15T21:06:01.496Z,97551.44
2023-06-15T21:08:32.731Z,97550.91
2023-06-15T21:11:00.690Z,97553.19
2023-06-15T21:13:28.452Z,97537.13
2023-06-15T21:15:56.211Z,97550.84
2023-06-15T21:18:26.383Z,97552.09
2023-06-15T21:20:53.968Z,97544.63
2023-06-15T21:23:21.501Z,97543.84
2023-06-15T21:25:50.270Z,97537.69
2023-06-15T21:28:17.909Z,97541.09
2023-06-15T21:30:45.487Z,97534.34
2023-06-15T21:33:13.049Z,97530.84
2023-06-15T21:35:41.920Z,97537.94
2023-06-15T21:38:09.456Z,97542.50
2023-06-15T21:40:37.024Z,97531.34
2023-06-15T21:43:04.814Z,97529.66
2023-06-15T21:45:32.362Z,97533.91
2023-06-15T21:47:59.915Z,97534.59
2023-06-15T21:50:27.713Z,97545.75
2023-06-15T21:52:59.169Z,97536.59
2023-06-15T21:55:28.712Z,97544.00
2023-06-15T21:57:56.513Z,97538.31
2023-06-15T22:00:24.536Z,97545.00
2023-06-15T22:02:53.744Z,97545.00
2023-06-15T22:05:21.958Z,97541.03
2023-06-15T22:07:50.457Z,97546.38
2023-06-15T22:10:19.812Z,97540.97
2023-06-15T22:12:48.285Z,97545.44
2023-06-15T22:15:16.056Z,97547.91
2023-06-15T22:17:44.366Z,97536.53
2023-06-15T22:20:14.962Z,97544.28
2023-06-15T22:22:42.651Z,97544.25
2023-06-15T22:25:10.830Z,97544.00
2023-06-15T22:27:39.792Z,97547.06
2023-06-15T22:30:08.792Z,97536.94
2023-06-15T22:32:36.550Z,97546.06
2023-06-15T22:35:04.856Z,97537.28
2023-06-15T22:37:32.445Z,97539.03
2023-06-15T22:39:59.944Z,97539.28
2023-06-15T22:42:29.143Z,97534.72
2023-06-15T22:44:58.293Z,97531.88
2023-06-15T22:47:26.989Z,97540.47
2023-06-15T22:49:54.668Z,97531.66
2023-06-15T22:52:23.183Z,97534.47
2023-06-15T22:54:51.042Z,97531.69
2023-06-15T22:57:19.070Z,97534.19
2023-06-15T22:59:46.638Z,97532.34
2023-06-15T23:02:17.474Z,97524.31
2023-06-15T23:04:45.238Z,97534.03
2023-06-15T23:07:13.080Z,97530.53
2023-06-15T23:09:40.771Z,97527.38
2023-06-15T23:12:12.609Z,97528.97
2023-06-15T23:14:41.302Z,97528.19
2023-06-15T23:17:09.011Z,97518.97
2023-06-15T23:19:38.335Z,97529.66
2023-06-15T23:22:06.978Z,97520.28
2023-06-15T23:24:34.764Z,97518.63
2023-06-15T23:27:03.995Z,97519.38
2023-06-15T23:29:36.261Z,97521.31
2023-06-15T23:32:03.793Z,97517.97
2023-06-15T23:34:31.444Z,97513.91
2023-06-15T23:37:00.490Z,97517.72
2023-06-15T23:39:27.992Z,97514.28
2023-06-15T23:41:55.547Z,97511.69
2023-06-15T23:44:23.113Z,97514.28
2023-06-15T23:46:51.166Z,97512.13
2023-06-15T23:49:19.038Z,97514.50
2023-06-15T23:51:46.594Z,97508.47
2023-06-15T23:54:15.453Z,97506.31
2023-06-15T23:56:43.085Z,97506.66
2023-06-15T23:59:12.658Z,97505.78
